sensor_id;sensor_type;location;lat;lon;timestamp;pressure;altitude;pressure_sealevel;temperature;humidity
48156;BME280;35568;48.104;11.782;2022-08-01T00:02:10;95400.26;;;21.21;42.02
48156;BME280;35568;48.104;11.782;2022-08-01T00:04:37;95399.37;;;20.99;41.92
48156;BME280;35568;48.104;11.782;2022-08-01T00:07:04;95396.62;;;21.24;41.90
48156;BME280;35568;48.104;11.782;2022-08-01T00:09:31;95394.08;;;20.90;41.98
48156;BME280;35568;48.104;11.782;2022-08-01T00:11:58;95391.63;;;21.16;41.89
48156;BME280;35568;48.104;11.782;2022-08-01T00:14:24;95392.57;;;21.28;41.81
48156;BME280;35568;48.104;11.782;2022-08-01T00:16:51;95391.32;;;21.26;41.81
48156;BME280;35568;48.104;11.782;2022-08-01T00:19:18;95395.78;;;21.03;41.72
48156;BME280;35568;48.104;11.782;2022-08-01T00:21:45;95398.21;;;21.36;41.67
48156;BME280;35568;48.104;11.782;2022-08-01T00:24:12;95401.77;;;21.10;41.65
48156;BME280;35568;48.104;11.782;2022-08-01T00:26:39;95405.88;;;21.11;41.60
48156;BME280;35568;48.104;11.782;2022-08-01T00:29:05;95405.49;;;21.09;41.67
48156;BME280;35568;48.104;11.782;2022-08-01T00:31:32;95406.75;;;21.28;41.87
48156;BME280;35568;48.104;11.782;2022-08-01T00:33:59;95407.17;;;21.14;41.68
48156;BME280;35568;48.104;11.782;2022-08-01T00:36:26;95408.72;;;21.38;41.83
48156;BME280;35568;48.104;11.782;2022-08-01T00:38:53;95407.89;;;21.47;41.83
48156;BME280;35568;48.104;11.782;2022-08-01T00:41:20;95408.29;;;21.29;41.66
48156;BME280;35568;48.104;11.782;2022-08-01T00:43:46;95408.30;;;21.37;41.91
48156;BME280;35568;48.104;11.782;2022-08-01T00:46:13;95407.83;;;21.41;41.89
48156;BME280;35568;48.104;11.782;2022-08-01T00:48:40;95407.83;;;21.36;42.04
48156;BME280;35568;48.104;11.782;2022-08-01T00:51:07;95405.10;;;21.37;41.96
48156;BME280;35568;48.104;11.782;2022-08-01T00:53:35;95406.14;;;21.37;41.99
48156;BME280;35568;48.104;11.782;2022-08-01T00:56:02;95403.07;;;21.30;42.08
48156;BME280;35568;48.104;11.782;2022-08-01T00:58:29;95407.07;;;21.29;42.17
48156;BME280;35568;48.104;11.782;2022-08-01T01:00:57;95409.63;;;21.26;42.23
48156;BME280;35568;48.104;11.782;2022-08-01T01:03:24;95410.56;;;21.16;42.38
48156;BME280;35568;48.104;11.782;2022-08-01T01:06:07;95412.11;;;21.18;42.34
48156;BME280;35568;48.104;11.782;2022-08-01T01:08:42;95412.69;;;21.17;42.52
48156;BME280;35568;48.104;11.782;2022-08-01T01:11:15;95411.79;;;21.20;42.32
48156;BME280;35568;48.104;11.782;2022-08-01T01:13:49;95413.33;;;21.11;42.43
48156;BME280;35568;48.104;11.782;2022-08-01T01:16:19;95411.37;;;21.11;42.48
48156;BME280;35568;48.104;11.782;2022-08-01T01:18:49;95412.65;;;20.97;42.63
48156;BME280;35568;48.104;11.782;2022-08-01T01:21:39;95415.71;;;20.83;42.76
48156;BME280;35568;48.104;11.782;2022-08-01T01:24:20;95412.94;;;20.76;42.83
48156;BME280;35568;48.104;11.782;2022-08-01T01:26:52;95415.02;;;20.82;42.67
48156;BME280;35568;48.104;11.782;2022-08-01T01:29:27;95418.66;;;20.75;42.64
48156;BME280;35568;48.104;11.782;2022-08-01T01:31:57;95412.52;;;20.72;42.67
48156;BME280;35568;48.104;11.782;2022-08-01T01:34:28;95414.62;;;20.69;42.71
48156;BME280;35568;48.104;11.782;2022-08-01T01:36:56;95413.17;;;20.61;42.72
48156;BME280;35568;48.104;11.782;2022-08-01T01:39:25;95412.35;;;21.07;42.73
48156;BME280;35568;48.104;11.782;2022-08-01T01:41:56;95417.27;;;20.59;42.67
48156;BME280;35568;48.104;11.782;2022-08-01T01:44:25;95419.63;;;20.79;42.79
48156;BME280;35568;48.104;11.782;2022-08-01T01:46:54;95417.98;;;20.57;42.65
48156;BME280;35568;48.104;11.782;2022-08-01T01:49:26;95417.47;;;20.73;42.68
48156;BME280;35568;48.104;11.782;2022-08-01T01:51:56;95418.35;;;20.73;42.69
48156;BME280;35568;48.104;11.782;2022-08-01T01:54:28;95421.59;;;20.78;42.64
48156;BME280;35568;48.104;11.782;2022-08-01T01:56:58;95420.47;;;20.50;42.62
48156;BME280;35568;48.104;11.782;2022-08-01T01:59:30;95421.26;;;20.64;42.65
48156;BME280;35568;48.104;11.782;2022-08-01T02:02:01;95423.04;;;20.81;42.76
48156;BME280;35568;48.104;11.782;2022-08-01T02:04:29;95421.24;;;20.53;42.80
48156;BME280;35568;48.104;11.782;2022-08-01T02:06:57;95423.56;;;20.75;42.83
48156;BME280;35568;48.104;11.782;2022-08-01T02:09:26;95422.40;;;20.70;42.79
48156;BME280;35568;48.104;11.782;2022-08-01T02:11:55;95421.79;;;20.70;42.80
48156;BME280;35568;48.104;11.782;2022-08-01T02:14:24;95426.41;;;20.46;42.79
48156;BME280;35568;48.104;11.782;2022-08-01T02:16:53;95426.80;;;20.52;42.75
48156;BME280;35568;48.104;11.782;2022-08-01T02:19:21;95425.69;;;20.35;42.89
48156;BME280;35568;48.104;11.782;2022-08-01T02:21:51;95428.22;;;20.43;43.16
48156;BME280;35568;48.104;11.782;2022-08-01T02:24:26;95425.15;;;20.42;42.83
48156;BME280;35568;48.104;11.782;2022-08-01T02:27:00;95424.66;;;20.39;42.84
48156;BME280;35568;48.104;11.782;2022-08-01T02:29:34;95427.10;;;20.57;42.82
48156;BME280;35568;48.104;11.782;2022-08-01T02:32:04;95427.12;;;20.49;42.93
48156;BME280;35568;48.104;11.782;2022-08-01T02:34:35;95430.57;;;20.45;42.90
48156;BME280;35568;48.104;11.782;2022-08-01T02:37:03;95430.20;;;20.22;42.93
48156;BME280;35568;48.104;11.782;2022-08-01T02:39:31;95431.28;;;20.17;42.90
48156;BME280;35568;48.104;11.782;2022-08-01T02:42:02;95429.60;;;20.06;43.07
48156;BME280;35568;48.104;11.782;2022-08-01T02:44:35;95429.72;;;20.09;43.05
48156;BME280;35568;48.104;11.782;2022-08-01T02:47:03;95431.69;;;20.08;42.95
48156;BME280;35568;48.104;11.782;2022-08-01T02:49:33;95431.41;;;20.21;43.02
48156;BME280;35568;48.104;11.782;2022-08-01T02:52:06;95434.26;;;20.02;42.96
48156;BME280;35568;48.104;11.782;2022-08-01T02:54:35;95434.75;;;20.19;42.99
48156;BME280;35568;48.104;11.782;2022-08-01T02:57:04;95434.63;;;20.20;42.81
48156;BME280;35568;48.104;11.782;2022-08-01T02:59:34;95441.38;;;19.98;42.78
48156;BME280;35568;48.104;11.782;2022-08-01T03:03:01;95439.99;;;20.12;42.56
48156;BME280;35568;48.104;11.782;2022-08-01T03:05:31;95438.68;;;20.32;42.62
48156;BME280;35568;48.104;11.782;2022-08-01T03:08:00;95441.85;;;19.88;42.85
48156;BME280;35568;48.104;11.782;2022-08-01T03:10:28;95443.57;;;19.98;43.15
48156;BME280;35568;48.104;11.782;2022-08-01T03:12:57;95443.73;;;20.00;43.02
48156;BME280;35568;48.104;11.782;2022-08-01T03:15:26;95449.50;;;19.76;43.12
48156;BME280;35568;48.104;11.782;2022-08-01T03:17:55;95446.43;;;20.00;43.07
48156;BME280;35568;48.104;11.782;2022-08-01T03:20:23;95449.52;;;19.80;43.32
48156;BME280;35568;48.104;11.782;2022-08-01T03:22:52;95447.75;;;19.74;43.43
48156;BME280;35568;48.104;11.782;2022-08-01T03:25:21;95455.02;;;19.62;43.26
48156;BME280;35568;48.104;11.782;2022-08-01T03:27:51;95457.44;;;19.69;43.58
48156;BME280;35568;48.104;11.782;2022-08-01T03:30:22;95454.70;;;19.71;43.48
48156;BME280;35568;48.104;11.782;2022-08-01T03:32:49;95460.16;;;19.70;43.74
48156;BME280;35568;48.104;11.782;2022-08-01T03:35:16;95464.09;;;19.85;43.61
48156;BME280;35568;48.104;11.782;2022-08-01T03:37:45;95460.35;;;19.75;43.87
48156;BME280;35568;48.104;11.782;2022-08-01T03:40:17;95460.18;;;19.50;43.76
48156;BME280;35568;48.104;11.782;2022-08-01T03:42:48;95460.02;;;19.40;43.88
48156;BME280;35568;48.104;11.782;2022-08-01T03:45:22;95460.77;;;19.36;43.94
48156;BME280;35568;48.104;11.782;2022-08-01T03:47:55;95464.49;;;19.66;43.89
48156;BME280;35568;48.104;11.782;2022-08-01T03:50:23;95467.48;;;19.46;43.68
48156;BME280;35568;48.104;11.782;2022-08-01T03:52:51;95468.79;;;19.63;43.84
48156;BME280;35568;48.104;11.782;2022-08-01T03:55:20;95473.12;;;19.33;43.90
48156;BME280;35568;48.104;11.782;2022-08-01T03:57:48;95476.73;;;19.19;44.05
48156;BME280;35568;48.104;11.782;2022-08-01T04:00:17;95479.34;;;19.23;43.88
48156;BME280;35568;48.104;11.782;2022-08-01T04:02:45;95482.96;;;19.46;43.93
48156;BME280;35568;48.104;11.782;2022-08-01T04:05:12;95481.93;;;19.14;44.09
48156;BME280;35568;48.104;11.782;2022-08-01T04:07:39;95482.38;;;19.72;44.02
48156;BME280;35568;48.104;11.782;2022-08-01T04:10:06;95482.20;;;19.69;44.03
48156;BME280;35568;48.104;11.782;2022-08-01T04:12:34;95483.73;;;19.38;43.88
48156;BME280;35568;48.104;11.782;2022-08-01T04:15:01;95482.65;;;19.55;43.88
48156;BME280;35568;48.104;11.782;2022-08-01T04:17:29;95484.02;;;19.61;44.19
48156;BME280;35568;48.104;11.782;2022-08-01T04:19:56;95491.17;;;19.44;44.16
48156;BME280;35568;48.104;11.782;2022-08-01T04:22:23;95496.76;;;19.50;43.99
48156;BME280;35568;48.104;11.782;2022-08-01T04:24:53;95500.66;;;19.44;44.06
48156;BME280;35568;48.104;11.782;2022-08-01T04:27:25;95498.45;;;19.19;44.09
48156;BME280;35568;48.104;11.782;2022-08-01T04:29:56;95499.05;;;19.10;44.16
48156;BME280;35568;48.104;11.782;2022-08-01T04:32:25;95503.09;;;19.17;43.98
48156;BME280;35568;48.104;11.782;2022-08-01T04:34:55;95505.40;;;19.44;43.98
48156;BME280;35568;48.104;11.782;2022-08-01T04:37:24;95507.44;;;19.55;43.76
48156;BME280;35568;48.104;11.782;2022-08-01T04:39:52;95505.45;;;19.50;43.81
48156;BME280;35568;48.104;11.782;2022-08-01T04:42:21;95508.15;;;19.76;43.81
48156;BME280;35568;48.104;11.782;2022-08-01T04:44:48;95508.35;;;19.73;43.99
48156;BME280;35568;48.104;11.782;2022-08-01T04:47:16;95509.72;;;19.55;43.57
48156;BME280;35568;48.104;11.782;2022-08-01T04:49:44;95512.67;;;19.41;43.46
48156;BME280;35568;48.104;11.782;2022-08-01T04:52:11;95513.60;;;19.69;43.41
48156;BME280;35568;48.104;11.782;2022-08-01T04:54:39;95513.38;;;19.51;43.33
48156;BME280;35568;48.104;11.782;2022-08-01T04:57:06;95516.61;;;19.61;43.17
48156;BME280;35568;48.104;11.782;2022-08-01T04:59:36;95520.34;;;19.72;43.04
48156;BME280;35568;48.104;11.782;2022-08-01T05:02:03;95520.90;;;19.79;43.02
48156;BME280;35568;48.104;11.782;2022-08-01T05:04:30;95522.45;;;19.81;42.95
48156;BME280;35568;48.104;11.782;2022-08-01T05:06:57;95522.71;;;19.79;43.15
48156;BME280;35568;48.104;11.782;2022-08-01T05:09:24;95519.79;;;20.16;43.14
48156;BME280;35568;48.104;11.782;2022-08-01T05:11:51;95520.37;;;19.98;42.77
48156;BME280;35568;48.104;11.782;2022-08-01T05:14:17;95525.11;;;20.05;42.66
48156;BME280;35568;48.104;11.782;2022-08-01T05:16:45;95529.52;;;20.19;42.49
48156;BME280;35568;48.104;11.782;2022-08-01T05:19:12;95528.31;;;20.31;42.53
48156;BME280;35568;48.104;11.782;2022-08-01T05:21:39;95529.21;;;20.29;41.98
48156;BME280;35568;48.104;11.782;2022-08-01T05:24:06;95531.05;;;20.82;41.82
48156;BME280;35568;48.104;11.782;2022-08-01T05:26:33;95532.79;;;20.81;41.83
48156;BME280;35568;48.104;11.782;2022-08-01T05:29:00;95531.22;;;20.61;41.67
48156;BME280;35568;48.104;11.782;2022-08-01T05:31:27;95533.50;;;20.64;41.73
48156;BME280;35568;48.104;11.782;2022-08-01T05:33:54;95529.91;;;20.79;41.50
48156;BME280;35568;48.104;11.782;2022-08-01T05:36:21;95531.23;;;20.92;41.52
48156;BME280;35568;48.104;11.782;2022-08-01T05:38:48;95534.85;;;20.90;41.44
48156;BME280;35568;48.104;11.782;2022-08-01T05:41:14;95534.78;;;20.73;41.49
48156;BME280;35568;48.104;11.782;2022-08-01T05:43:41;95536.97;;;20.84;41.40
48156;BME280;35568;48.104;11.782;2022-08-01T05:46:08;95541.90;;;20.78;41.23
48156;BME280;35568;48.104;11.782;2022-08-01T05:48:35;95539.49;;;21.14;41.04
48156;BME280;35568;48.104;11.782;2022-08-01T05:51:02;95540.71;;;21.14;40.79
48156;BME280;35568;48.104;11.782;2022-08-01T05:53:28;95543.47;;;21.69;40.40
48156;BME280;35568;48.104;11.782;2022-08-01T05:55:55;95548.54;;;22.09;39.99
48156;BME280;35568;48.104;11.782;2022-08-01T05:58:22;95552.76;;;22.19;39.27
48156;BME280;35568;48.104;11.782;2022-08-01T06:00:49;95550.87;;;22.23;38.91
48156;BME280;35568;48.104;11.782;2022-08-01T06:03:16;95550.39;;;22.58;38.65
48156;BME280;35568;48.104;11.782;2022-08-01T06:05:43;95552.02;;;22.87;38.20
48156;BME280;35568;48.104;11.782;2022-08-01T06:08:10;95555.74;;;22.99;37.78
48156;BME280;35568;48.104;11.782;2022-08-01T06:10:37;95558.22;;;22.87;37.61
48156;BME280;35568;48.104;11.782;2022-08-01T06:13:04;95559.78;;;23.39;37.48
48156;BME280;35568;48.104;11.782;2022-08-01T06:15:31;95561.07;;;23.43;37.04
48156;BME280;35568;48.104;11.782;2022-08-01T06:17:58;95559.39;;;23.25;36.63
48156;BME280;35568;48.104;11.782;2022-08-01T06:20:25;95559.49;;;23.38;36.62
48156;BME280;35568;48.104;11.782;2022-08-01T06:22:52;95559.82;;;23.62;36.40
48156;BME280;35568;48.104;11.782;2022-08-01T06:25:19;95560.38;;;23.70;36.26
48156;BME280;35568;48.104;11.782;2022-08-01T06:27:46;95561.08;;;24.12;35.85
48156;BME280;35568;48.104;11.782;2022-08-01T06:30:13;95559.54;;;24.41;35.31
48156;BME280;35568;48.104;11.782;2022-08-01T06:32:40;95563.71;;;24.39;35.36
48156;BME280;35568;48.104;11.782;2022-08-01T06:35:07;95560.30;;;24.27;35.04
48156;BME280;35568;48.104;11.782;2022-08-01T06:37:34;95562.47;;;24.87;34.90
48156;BME280;35568;48.104;11.782;2022-08-01T06:40:01;95560.33;;;24.97;33.95
48156;BME280;35568;48.104;11.782;2022-08-01T06:42:28;95560.81;;;24.95;33.90
48156;BME280;35568;48.104;11.782;2022-08-01T06:44:55;95560.82;;;24.91;33.78
48156;BME280;35568;48.104;11.782;2022-08-01T06:47:21;95565.09;;;24.96;33.68
48156;BME280;35568;48.104;11.782;2022-08-01T06:49:48;95564.53;;;25.13;33.95
48156;BME280;35568;48.104;11.782;2022-08-01T06:52:16;95561.94;;;25.38;33.81
48156;BME280;35568;48.104;11.782;2022-08-01T06:54:43;95562.73;;;25.48;33.47
48156;BME280;35568;48.104;11.782;2022-08-01T06:57:09;95563.15;;;26.14;33.09
48156;BME280;35568;48.104;11.782;2022-08-01T06:59:37;95561.37;;;26.06;32.59
48156;BME280;35568;48.104;11.782;2022-08-01T07:02:03;95560.20;;;26.36;32.21
48156;BME280;35568;48.104;11.782;2022-08-01T07:04:30;95561.87;;;26.37;31.98
48156;BME280;35568;48.104;11.782;2022-08-01T07:06:57;95562.46;;;26.61;31.53
48156;BME280;35568;48.104;11.782;2022-08-01T07:09:24;95562.38;;;26.25;31.99
48156;BME280;35568;48.104;11.782;2022-08-01T07:11:51;95562.59;;;26.06;32.13
48156;BME280;35568;48.104;11.782;2022-08-01T07:14:18;95559.50;;;26.34;31.94
48156;BME280;35568;48.104;11.782;2022-08-01T07:16:45;95558.71;;;26.58;31.70
48156;BME280;35568;48.104;11.782;2022-08-01T07:19:12;95556.55;;;26.62;31.49
48156;BME280;35568;48.104;11.782;2022-08-01T07:21:39;95558.61;;;27.00;31.25
48156;BME280;35568;48.104;11.782;2022-08-01T07:24:09;95558.83;;;27.64;30.51
48156;BME280;35568;48.104;11.782;2022-08-01T07:26:36;95558.58;;;27.21;30.92
48156;BME280;35568;48.104;11.782;2022-08-01T07:29:03;95558.35;;;27.99;30.82
48156;BME280;35568;48.104;11.782;2022-08-01T07:31:30;95561.14;;;27.71;30.42
48156;BME280;35568;48.104;11.782;2022-08-01T07:33:56;95559.24;;;28.02;30.17
48156;BME280;35568;48.104;11.782;2022-08-01T07:36:24;95556.24;;;27.64;30.22
48156;BME280;35568;48.104;11.782;2022-08-01T07:38:51;95555.90;;;27.80;30.24
48156;BME280;35568;48.104;11.782;2022-08-01T07:41:18;95557.83;;;27.96;30.09
48156;BME280;35568;48.104;11.782;2022-08-01T07:43:44;95557.93;;;28.05;30.00
48156;BME280;35568;48.104;11.782;2022-08-01T07:46:11;95549.22;;;28.93;29.35
48156;BME280;35568;48.104;11.782;2022-08-01T07:48:38;95549.35;;;28.96;28.77
48156;BME280;35568;48.104;11.782;2022-08-01T07:51:05;95549.56;;;28.96;28.69
48156;BME280;35568;48.104;11.782;2022-08-01T07:53:32;95551.47;;;29.31;28.39
48156;BME280;35568;48.104;11.782;2022-08-01T07:55:58;95546.75;;;29.53;28.25
48156;BME280;35568;48.104;11.782;2022-08-01T07:58:25;95551.25;;;29.60;27.98
48156;BME280;35568;48.104;11.782;2022-08-01T08:00:52;95555.52;;;28.90;28.26
48156;BME280;35568;48.104;11.782;2022-08-01T08:03:19;95554.53;;;28.65;28.62
48156;BME280;35568;48.104;11.782;2022-08-01T08:05:46;95555.68;;;29.11;28.38
48156;BME280;35568;48.104;11.782;2022-08-01T08:08:12;95554.02;;;29.15;28.32
48156;BME280;35568;48.104;11.782;2022-08-01T08:10:39;95555.16;;;29.19;28.17
48156;BME280;35568;48.104;11.782;2022-08-01T08:13:06;95550.37;;;29.39;27.92
48156;BME280;35568;48.104;11.782;2022-08-01T08:15:33;95550.65;;;29.81;27.68
48156;BME280;35568;48.104;11.782;2022-08-01T08:18:05;95556.04;;;30.26;27.35
48156;BME280;35568;48.104;11.782;2022-08-01T08:20:32;95550.16;;;30.66;26.90
48156;BME280;35568;48.104;11.782;2022-08-01T08:23:00;95549.42;;;30.47;27.19
48156;BME280;35568;48.104;11.782;2022-08-01T08:25:27;95550.40;;;30.40;26.42
48156;BME280;35568;48.104;11.782;2022-08-01T08:27:54;95543.85;;;31.12;26.24
48156;BME280;35568;48.104;11.782;2022-08-01T08:30:21;95542.51;;;30.62;26.11
48156;BME280;35568;48.104;11.782;2022-08-01T08:32:47;95545.70;;;30.47;26.87
48156;BME280;35568;48.104;11.782;2022-08-01T08:35:14;95542.16;;;30.44;26.14
48156;BME280;35568;48.104;11.782;2022-08-01T08:37:41;95542.64;;;30.72;26.44
48156;BME280;35568;48.104;11.782;2022-08-01T08:40:09;95534.43;;;31.08;25.96
48156;BME280;35568;48.104;11.782;2022-08-01T08:42:39;95539.90;;;31.12;25.72
48156;BME280;35568;48.104;11.782;2022-08-01T08:45:08;95539.16;;;31.50;25.72
48156;BME280;35568;48.104;11.782;2022-08-01T08:47:35;95538.83;;;31.09;25.48
48156;BME280;35568;48.104;11.782;2022-08-01T08:50:04;95541.98;;;31.99;25.16
48156;BME280;35568;48.104;11.782;2022-08-01T08:52:35;95537.83;;;32.64;24.44
48156;BME280;35568;48.104;11.782;2022-08-01T08:55:05;95543.11;;;32.62;24.87
48156;BME280;35568;48.104;11.782;2022-08-01T08:57:33;95541.10;;;32.44;24.36
48156;BME280;35568;48.104;11.782;2022-08-01T09:00:01;95543.19;;;32.49;24.23
48156;BME280;35568;48.104;11.782;2022-08-01T09:02:27;95541.90;;;32.17;24.12
48156;BME280;35568;48.104;11.782;2022-08-01T09:04:54;95542.94;;;31.61;24.29
48156;BME280;35568;48.104;11.782;2022-08-01T09:07:21;95537.00;;;32.44;23.96
48156;BME280;35568;48.104;11.782;2022-08-01T09:09:48;95538.68;;;32.70;23.60
48156;BME280;35568;48.104;11.782;2022-08-01T09:12:16;95539.50;;;32.96;23.61
48156;BME280;35568;48.104;11.782;2022-08-01T09:14:46;95536.30;;;32.79;23.22
48156;BME280;35568;48.104;11.782;2022-08-01T09:17:13;95535.38;;;33.02;23.75
48156;BME280;35568;48.104;11.782;2022-08-01T09:19:42;95536.77;;;32.76;23.37
48156;BME280;35568;48.104;11.782;2022-08-01T09:22:11;95536.34;;;33.00;22.90
48156;BME280;35568;48.104;11.782;2022-08-01T09:24:40;95537.88;;;32.80;23.16
48156;BME280;35568;48.104;11.782;2022-08-01T09:27:16;95535.35;;;33.07;23.26
48156;BME280;35568;48.104;11.782;2022-08-01T09:29:44;95536.62;;;33.02;22.88
48156;BME280;35568;48.104;11.782;2022-08-01T09:32:11;95536.03;;;32.80;23.17
48156;BME280;35568;48.104;11.782;2022-08-01T09:34:38;95541.35;;;33.09;22.94
48156;BME280;35568;48.104;11.782;2022-08-01T09:37:05;95532.89;;;33.66;22.42
48156;BME280;35568;48.104;11.782;2022-08-01T09:39:33;95523.10;;;34.29;21.98
48156;BME280;35568;48.104;11.782;2022-08-01T09:42:02;95531.34;;;33.51;22.22
48156;BME280;35568;48.104;11.782;2022-08-01T09:44:44;95527.49;;;32.83;22.56
48156;BME280;35568;48.104;11.782;2022-08-01T09:47:12;95529.17;;;32.21;23.05
48156;BME280;35568;48.104;11.782;2022-08-01T09:49:41;95533.41;;;32.25;23.15
48156;BME280;35568;48.104;11.782;2022-08-01T09:52:13;95530.78;;;32.34;22.91
48156;BME280;35568;48.104;11.782;2022-08-01T09:54:41;95529.84;;;33.07;22.80
48156;BME280;35568;48.104;11.782;2022-08-01T09:57:11;95524.31;;;33.24;22.40
48156;BME280;35568;48.104;11.782;2022-08-01T09:59:40;95517.67;;;34.18;22.31
48156;BME280;35568;48.104;11.782;2022-08-01T10:02:09;95524.94;;;33.78;22.69
48156;BME280;35568;48.104;11.782;2022-08-01T10:04:36;95522.36;;;34.02;22.13
48156;BME280;35568;48.104;11.782;2022-08-01T10:07:06;95517.86;;;34.85;21.54
48156;BME280;35568;48.104;11.782;2022-08-01T10:09:35;95514.28;;;34.28;21.75
48156;BME280;35568;48.104;11.782;2022-08-01T10:12:03;95512.43;;;34.50;21.85
48156;BME280;35568;48.104;11.782;2022-08-01T10:14:31;95510.47;;;34.02;21.75
48156;BME280;35568;48.104;11.782;2022-08-01T10:17:00;95511.89;;;34.72;21.44
48156;BME280;35568;48.104;11.782;2022-08-01T10:19:29;95509.53;;;34.75;21.75
48156;BME280;35568;48.104;11.782;2022-08-01T10:21:56;95508.66;;;34.86;21.24
48156;BME280;35568;48.104;11.782;2022-08-01T10:24:24;95511.85;;;33.48;21.89
48156;BME280;35568;48.104;11.782;2022-08-01T10:26:53;95509.96;;;34.02;21.53
48156;BME280;35568;48.104;11.782;2022-08-01T10:29:22;95508.05;;;34.64;20.95
48156;BME280;35568;48.104;11.782;2022-08-01T10:31:50;95502.09;;;34.97;20.98
48156;BME280;35568;48.104;11.782;2022-08-01T10:34:18;95497.29;;;35.11;20.51
48156;BME280;35568;48.104;11.782;2022-08-01T10:36:46;95497.57;;;35.30;20.74
48156;BME280;35568;48.104;11.782;2022-08-01T10:39:14;95499.67;;;34.64;21.21
48156;BME280;35568;48.104;11.782;2022-08-01T10:41:41;95493.33;;;33.94;21.66
48156;BME280;35568;48.104;11.782;2022-08-01T10:44:08;95497.11;;;33.66;21.90
48156;BME280;35568;48.104;11.782;2022-08-01T10:46:38;95496.37;;;33.68;21.75
48156;BME280;35568;48.104;11.782;2022-08-01T10:49:08;95494.59;;;33.12;22.57
48156;BME280;35568;48.104;11.782;2022-08-01T10:51:38;95491.50;;;32.62;23.07
48156;BME280;35568;48.104;11.782;2022-08-01T10:54:07;95494.06;;;32.00;23.28
48156;BME280;35568;48.104;11.782;2022-08-01T10:56:43;95489.90;;;32.81;22.55
48156;BME280;35568;48.104;11.782;2022-08-01T10:59:15;95486.35;;;32.67;22.33
48156;BME280;35568;48.104;11.782;2022-08-01T11:01:56;95483.63;;;33.51;22.14
48156;BME280;35568;48.104;11.782;2022-08-01T11:04:33;95480.85;;;34.03;21.68
48156;BME280;35568;48.104;11.782;2022-08-01T11:07:04;95478.85;;;33.89;21.49
48156;BME280;35568;48.104;11.782;2022-08-01T11:09:40;95473.83;;;33.30;21.83
48156;BME280;35568;48.104;11.782;2022-08-01T11:12:10;95470.37;;;33.84;22.10
48156;BME280;35568;48.104;11.782;2022-08-01T11:15:42;95470.96;;;34.75;21.17
48156;BME280;35568;48.104;11.782;2022-08-01T11:18:30;95467.02;;;35.89;19.98
48156;BME280;35568;48.104;11.782;2022-08-01T11:20:58;95460.70;;;35.76;20.25
48156;BME280;35568;48.104;11.782;2022-08-01T11:23:27;95462.32;;;34.30;20.85
48156;BME280;35568;48.104;11.782;2022-08-01T11:26:27;95463.30;;;34.59;21.27
48156;BME280;35568;48.104;11.782;2022-08-01T11:29:26;95460.92;;;35.36;21.09
48156;BME280;35568;48.104;11.782;2022-08-01T11:31:53;95463.20;;;35.98;20.50
48156;BME280;35568;48.104;11.782;2022-08-01T11:34:54;95455.71;;;35.78;20.46
48156;BME280;35568;48.104;11.782;2022-08-01T11:37:23;95455.39;;;34.98;21.04
48156;BME280;35568;48.104;11.782;2022-08-01T11:40:14;95450.97;;;35.39;20.57
48156;BME280;35568;48.104;11.782;2022-08-01T11:42:41;95445.87;;;36.07;20.12
48156;BME280;35568;48.104;11.782;2022-08-01T11:45:08;95457.46;;;36.44;19.32
48156;BME280;35568;48.104;11.782;2022-08-01T11:47:51;95457.81;;;35.51;19.40
48156;BME280;35568;48.104;11.782;2022-08-01T11:50:35;95457.21;;;36.63;19.21
48156;BME280;35568;48.104;11.782;2022-08-01T11:53:03;95456.66;;;37.77;18.63
48156;BME280;35568;48.104;11.782;2022-08-01T11:55:31;95454.46;;;37.71;18.17
48156;BME280;35568;48.104;11.782;2022-08-01T11:58:00;95452.02;;;36.12;19.37
48156;BME280;35568;48.104;11.782;2022-08-01T12:00:27;95454.24;;;35.62;19.04
48156;BME280;35568;48.104;11.782;2022-08-01T12:02:58;95449.78;;;35.73;19.82
48156;BME280;35568;48.104;11.782;2022-08-01T12:05:26;95455.29;;;36.55;19.18
48156;BME280;35568;48.104;11.782;2022-08-01T12:07:54;95452.58;;;36.31;18.55
48156;BME280;35568;48.104;11.782;2022-08-01T12:10:25;95448.12;;;36.43;18.63
48156;BME280;35568;48.104;11.782;2022-08-01T12:12:54;95444.41;;;37.09;18.57
48156;BME280;35568;48.104;11.782;2022-08-01T12:15:23;95451.89;;;37.57;18.28
48156;BME280;35568;48.104;11.782;2022-08-01T12:17:56;95446.38;;;37.37;18.10
48156;BME280;35568;48.104;11.782;2022-08-01T12:20:24;95437.38;;;38.70;17.00
48156;BME280;35568;48.104;11.782;2022-08-01T12:22:54;95429.57;;;39.85;15.94
48156;BME280;35568;48.104;11.782;2022-08-01T12:25:21;95432.87;;;39.21;16.53
48156;BME280;35568;48.104;11.782;2022-08-01T12:27:49;95433.55;;;39.98;16.12
48156;BME280;35568;48.104;11.782;2022-08-01T12:30:18;95434.21;;;38.46;15.76
48156;BME280;35568;48.104;11.782;2022-08-01T12:32:46;95433.34;;;36.35;17.45
48156;BME280;35568;48.104;11.782;2022-08-01T12:35:15;95432.76;;;36.49;18.17
48156;BME280;35568;48.104;11.782;2022-08-01T12:37:45;95429.70;;;36.88;18.10
48156;BME280;35568;48.104;11.782;2022-08-01T12:40:14;95424.36;;;37.15;17.70
48156;BME280;35568;48.104;11.782;2022-08-01T12:42:43;95427.76;;;36.96;17.72
48156;BME280;35568;48.104;11.782;2022-08-01T12:45:13;95421.43;;;37.39;17.90
48156;BME280;35568;48.104;11.782;2022-08-01T12:47:41;95420.73;;;37.32;17.20
48156;BME280;35568;48.104;11.782;2022-08-01T12:50:12;95415.80;;;37.62;17.51
48156;BME280;35568;48.104;11.782;2022-08-01T12:52:39;95411.30;;;37.63;17.13
48156;BME280;35568;48.104;11.782;2022-08-01T12:55:11;95413.61;;;37.16;16.95
48156;BME280;35568;48.104;11.782;2022-08-01T12:57:41;95415.97;;;36.99;17.40
48156;BME280;35568;48.104;11.782;2022-08-01T13:00:12;95413.38;;;36.60;18.01
48156;BME280;35568;48.104;11.782;2022-08-01T13:02:41;95410.45;;;35.79;18.30